ARG1934 SABE-SARI
Flight info
| Callsign | ARG1934 |
|---|---|
| Flight time | 1h 37m |
| Altitude | 39000 |
| Route | LANDA4B LANDA UN785 GEMSU UT667 NAIDE NAIDE2Q |
| Aircraft | E190/M-SDE3GILORVW/S |
Departure
| Time | 2026-04-15 16:37 |
|---|---|
| Airport | Aeroparque Jorge Newbery (SABE) |
Arrival
| Time | 2026-04-15 18:14 |
|---|---|
| Airport | Cataratas Del Iguazú International Airport (SARI) |
| Time | Latitude | Longitude | Altitude | Speed | Heading |
|---|---|---|---|---|---|
| 2026-04-15 16:08 | -34.55796 | -58.41248 | 26 ft | 0 kts | 36° |
| 2026-04-15 16:26 | -34.55804 | -58.41255 | 24 ft | 4 kts | 36° |
| 2026-04-15 16:26 | -34.55826 | -58.41272 | 26 ft | 4 kts | 11° |
| 2026-04-15 16:26 | -34.55842 | -58.41270 | 28 ft | 2 kts | 301° |
| 2026-04-15 16:27 | -34.55862 | -58.41231 | 28 ft | 0 kts | 306° |
| 2026-04-15 16:29 | -34.55862 | -58.41232 | 28 ft | 1 kts | 306° |
| 2026-04-15 16:29 | -34.55852 | -58.41258 | 26 ft | 4 kts | 279° |
| 2026-04-15 16:30 | -34.55870 | -58.41290 | 27 ft | 5 kts | 217° |
| 2026-04-15 16:30 | -34.55904 | -58.41320 | 24 ft | 7 kts | 241° |
| 2026-04-15 16:30 | -34.55894 | -58.41376 | 24 ft | 8 kts | 297° |
| 2026-04-15 16:30 | -34.55864 | -58.41447 | 24 ft | 10 kts | 297° |
| 2026-04-15 16:31 | -34.55833 | -58.41520 | 26 ft | 10 kts | 297° |
| 2026-04-15 16:31 | -34.55802 | -58.41593 | 26 ft | 10 kts | 297° |
| 2026-04-15 16:31 | -34.55773 | -58.41664 | 26 ft | 9 kts | 296° |
| 2026-04-15 16:31 | -34.55744 | -58.41733 | 26 ft | 9 kts | 296° |
| 2026-04-15 16:32 | -34.55713 | -58.41797 | 26 ft | 9 kts | 303° |
| 2026-04-15 16:32 | -34.55680 | -58.41857 | 24 ft | 8 kts | 303° |
| 2026-04-15 16:32 | -34.55648 | -58.41915 | 25 ft | 8 kts | 303° |
| 2026-04-15 16:32 | -34.55616 | -58.41973 | 24 ft | 8 kts | 303° |
| 2026-04-15 16:33 | -34.55585 | -58.42029 | 24 ft | 8 kts | 303° |
| 2026-04-15 16:33 | -34.55552 | -58.42083 | 26 ft | 8 kts | 307° |
| 2026-04-15 16:33 | -34.55519 | -58.42135 | 25 ft | 8 kts | 307° |
| 2026-04-15 16:33 | -34.55486 | -58.42187 | 24 ft | 8 kts | 307° |
| 2026-04-15 16:34 | -34.55457 | -58.42235 | 24 ft | 8 kts | 307° |
| 2026-04-15 16:34 | -34.55425 | -58.42285 | 28 ft | 7 kts | 307° |
| 2026-04-15 16:34 | -34.55396 | -58.42332 | 24 ft | 6 kts | 308° |
| 2026-04-15 16:34 | -34.55372 | -58.42380 | 26 ft | 7 kts | 290° |
| 2026-04-15 16:35 | -34.55363 | -58.42430 | 24 ft | 6 kts | 280° |
| 2026-04-15 16:35 | -34.55366 | -58.42475 | 24 ft | 5 kts | 249° |
| 2026-04-15 16:35 | -34.55386 | -58.42505 | 26 ft | 4 kts | 210° |
| 2026-04-15 16:35 | -34.55405 | -58.42503 | 25 ft | 2 kts | 156° |
| 2026-04-15 16:36 | -34.55409 | -58.42496 | 25 ft | 0 kts | 128° |
| 2026-04-15 16:36 | -34.55427 | -58.42468 | 26 ft | 21 kts | 125° |
| 2026-04-15 16:36 | -34.55648 | -58.42071 | 28 ft | 92 kts | 123° |
| 2026-04-15 16:37 | -34.56121 | -58.41227 | 72 ft | 146 kts | 125° |
| 2026-04-15 16:37 | -34.56761 | -58.40123 | 717 ft | 163 kts | 126° |
| 2026-04-15 16:37 | -34.57378 | -58.39031 | 1766 ft | 152 kts | 117° |
| 2026-04-15 16:37 | -34.57613 | -58.37749 | 2402 ft | 168 kts | 86° |
| 2026-04-15 16:38 | -34.57276 | -58.36356 | 2668 ft | 205 kts | 68° |
| 2026-04-15 16:38 | -34.56467 | -58.34699 | 3193 ft | 239 kts | 57° |
| 2026-04-15 16:38 | -34.55236 | -58.33140 | 3711 ft | 271 kts | 42° |
| 2026-04-15 16:38 | -34.53520 | -58.32034 | 4655 ft | 288 kts | 21° |
| 2026-04-15 16:39 | -34.51516 | -58.31589 | 5782 ft | 294 kts | 7° |
| 2026-04-15 16:39 | -34.49510 | -58.31522 | 7026 ft | 289 kts | 4° |
| 2026-04-15 16:39 | -34.47530 | -58.31485 | 8350 ft | 277 kts | 5° |
| 2026-04-15 16:39 | -34.45606 | -58.31583 | 9503 ft | 281 kts | 351° |
| 2026-04-15 16:40 | -34.43784 | -58.32547 | 10383 ft | 290 kts | 334° |
| 2026-04-15 16:40 | -34.42065 | -58.33787 | 11280 ft | 292 kts | 333° |
| 2026-04-15 16:40 | -34.40322 | -58.35082 | 12240 ft | 294 kts | 332° |
| 2026-04-15 16:40 | -34.38575 | -58.36399 | 13191 ft | 297 kts | 332° |
| 2026-04-15 16:41 | -34.36815 | -58.37727 | 14179 ft | 299 kts | 332° |
| 2026-04-15 16:41 | -34.35017 | -58.39071 | 14999 ft | 306 kts | 332° |
| 2026-04-15 16:41 | -34.33193 | -58.40433 | 15940 ft | 309 kts | 331° |
| 2026-04-15 16:41 | -34.31369 | -58.41799 | 16786 ft | 315 kts | 330° |
| 2026-04-15 16:42 | -34.29484 | -58.43219 | 17559 ft | 322 kts | 329° |
| 2026-04-15 16:42 | -34.27576 | -58.44673 | 18430 ft | 322 kts | 329° |
| 2026-04-15 16:42 | -34.25673 | -58.46127 | 19174 ft | 325 kts | 329° |
| 2026-04-15 16:42 | -34.23761 | -58.47587 | 19826 ft | 329 kts | 329° |
| 2026-04-15 16:43 | -34.21876 | -58.49035 | 20468 ft | 335 kts | 329° |
| 2026-04-15 16:43 | -34.19897 | -58.50554 | 21088 ft | 340 kts | 329° |
| 2026-04-15 16:43 | -34.17896 | -58.52093 | 21834 ft | 340 kts | 329° |
| 2026-04-15 16:43 | -34.15879 | -58.53643 | 22451 ft | 346 kts | 329° |
| 2026-04-15 16:44 | -34.13828 | -58.55213 | 23034 ft | 351 kts | 331° |
| 2026-04-15 16:44 | -34.11596 | -58.56346 | 23580 ft | 353 kts | 347° |
| 2026-04-15 16:44 | -34.09182 | -58.56726 | 24214 ft | 350 kts | 355° |
| 2026-04-15 16:44 | -34.06780 | -58.56947 | 24941 ft | 345 kts | 356° |
| 2026-04-15 16:45 | -34.04360 | -58.57124 | 25400 ft | 349 kts | 357° |
| 2026-04-15 16:45 | -34.01919 | -58.57223 | 25844 ft | 352 kts | 358° |
| 2026-04-15 16:45 | -33.99488 | -58.57279 | 26382 ft | 353 kts | 358° |
| 2026-04-15 16:45 | -33.97023 | -58.57335 | 26853 ft | 356 kts | 358° |
| 2026-04-15 16:46 | -33.94532 | -58.57409 | 27340 ft | 358 kts | 358° |
| 2026-04-15 16:46 | -33.92034 | -58.57493 | 27787 ft | 361 kts | 358° |
| 2026-04-15 16:46 | -33.90338 | -58.57549 | 27781 ft | 371 kts | 358° |
| 2026-04-15 16:46 | -33.86829 | -58.57686 | 27793 ft | 389 kts | 357° |
| 2026-04-15 16:47 | -33.84978 | -58.57773 | 27830 ft | 397 kts | 357° |
| 2026-04-15 16:47 | -33.81315 | -58.57947 | 28460 ft | 397 kts | 357° |
| 2026-04-15 16:47 | -33.79449 | -58.58031 | 28844 ft | 396 kts | 357° |
| 2026-04-15 16:47 | -33.76687 | -58.58151 | 29267 ft | 398 kts | 357° |
| 2026-04-15 16:48 | -33.73018 | -58.58308 | 29645 ft | 402 kts | 357° |
| 2026-04-15 16:48 | -33.71122 | -58.58390 | 29876 ft | 404 kts | 357° |
| 2026-04-15 16:48 | -33.68315 | -58.58512 | 30164 ft | 406 kts | 357° |
| 2026-04-15 16:48 | -33.65478 | -58.58635 | 30437 ft | 408 kts | 357° |
| 2026-04-15 16:49 | -33.62655 | -58.58758 | 30622 ft | 412 kts | 357° |
| 2026-04-15 16:49 | -33.59785 | -58.58883 | 30913 ft | 413 kts | 357° |
| 2026-04-15 16:49 | -33.56869 | -58.59010 | 31195 ft | 416 kts | 358° |
| 2026-04-15 16:49 | -33.53991 | -58.59134 | 31452 ft | 418 kts | 358° |
| 2026-04-15 16:50 | -33.51074 | -58.59261 | 31728 ft | 420 kts | 358° |
| 2026-04-15 16:50 | -33.48155 | -58.59387 | 32004 ft | 421 kts | 358° |
| 2026-04-15 16:50 | -33.45212 | -58.59513 | 32350 ft | 421 kts | 358° |
| 2026-04-15 16:50 | -33.42275 | -58.59640 | 32777 ft | 419 kts | 358° |
| 2026-04-15 16:51 | -33.39381 | -58.59766 | 33042 ft | 421 kts | 358° |
| 2026-04-15 16:51 | -33.36454 | -58.59893 | 33449 ft | 419 kts | 358° |
| 2026-04-15 16:51 | -33.33538 | -58.60019 | 33815 ft | 419 kts | 358° |
| 2026-04-15 16:51 | -33.30615 | -58.60145 | 34118 ft | 418 kts | 358° |
| 2026-04-15 16:52 | -33.27755 | -58.60269 | 34477 ft | 415 kts | 358° |
| 2026-04-15 16:52 | -33.24870 | -58.60392 | 34829 ft | 412 kts | 358° |
| 2026-04-15 16:52 | -33.22002 | -58.60515 | 35099 ft | 411 kts | 358° |
| 2026-04-15 16:52 | -33.19144 | -58.60638 | 35379 ft | 410 kts | 357° |
| 2026-04-15 16:53 | -33.16297 | -58.60760 | 35647 ft | 409 kts | 357° |
| 2026-04-15 16:53 | -33.13452 | -58.60883 | 35842 ft | 409 kts | 357° |
| 2026-04-15 16:53 | -33.10638 | -58.61003 | 36068 ft | 408 kts | 357° |
| 2026-04-15 16:53 | -33.07804 | -58.61126 | 36297 ft | 407 kts | 357° |
| 2026-04-15 16:54 | -33.04964 | -58.61248 | 36511 ft | 406 kts | 357° |
| 2026-04-15 16:54 | -33.02139 | -58.61311 | 36768 ft | 407 kts | 2° |
| 2026-04-15 16:54 | -32.99371 | -58.60707 | 36892 ft | 410 kts | 14° |
| 2026-04-15 16:54 | -32.96593 | -58.59764 | 37145 ft | 409 kts | 13° |
| 2026-04-15 16:55 | -32.93907 | -58.58844 | 37440 ft | 406 kts | 14° |
| 2026-04-15 16:55 | -32.91198 | -58.57875 | 37588 ft | 407 kts | 15° |
| 2026-04-15 16:55 | -32.88486 | -58.56872 | 37795 ft | 406 kts | 15° |
| 2026-04-15 16:55 | -32.85790 | -58.55868 | 38030 ft | 405 kts | 15° |
| 2026-04-15 16:56 | -32.83128 | -58.54886 | 38194 ft | 405 kts | 14° |
| 2026-04-15 16:56 | -32.80428 | -58.53905 | 38364 ft | 404 kts | 14° |
| 2026-04-15 16:56 | -32.77730 | -58.52930 | 38544 ft | 404 kts | 14° |
| 2026-04-15 16:56 | -32.75044 | -58.51960 | 38675 ft | 403 kts | 14° |
| 2026-04-15 16:57 | -32.72366 | -58.50989 | 38952 ft | 396 kts | 14° |
| 2026-04-15 16:57 | -32.67019 | -58.49052 | 38764 ft | 408 kts | 14° |
| 2026-04-15 16:58 | -32.61613 | -58.47100 | 38804 ft | 407 kts | 13° |
| 2026-04-15 16:58 | -32.56146 | -58.45126 | 38801 ft | 413 kts | 13° |
| 2026-04-15 16:59 | -32.50653 | -58.43147 | 38791 ft | 414 kts | 14° |
| 2026-04-15 16:59 | -32.45141 | -58.41163 | 38782 ft | 413 kts | 14° |
| 2026-04-15 17:00 | -32.39655 | -58.39189 | 38832 ft | 411 kts | 12° |
| 2026-04-15 17:00 | -32.34206 | -58.37226 | 38927 ft | 411 kts | 14° |
| 2026-04-15 17:00 | -32.31439 | -58.36250 | 38547 ft | 410 kts | 13° |
| 2026-04-15 17:01 | -32.28757 | -58.35327 | 39018 ft | 396 kts | 13° |
| 2026-04-15 17:01 | -32.26088 | -58.34361 | 38731 ft | 408 kts | 14° |
| 2026-04-15 17:01 | -32.23368 | -58.33349 | 38784 ft | 406 kts | 14° |
| 2026-04-15 17:02 | -32.17951 | -58.31361 | 38766 ft | 411 kts | 14° |
| 2026-04-15 17:02 | -32.12455 | -58.29397 | 38766 ft | 412 kts | 14° |
| 2026-04-15 17:03 | -32.07090 | -58.27478 | 38555 ft | 389 kts | 12° |
| 2026-04-15 17:03 | -32.01817 | -58.25588 | 39346 ft | 396 kts | 13° |
| 2026-04-15 17:04 | -31.96596 | -58.23737 | 39203 ft | 384 kts | 14° |
| 2026-04-15 17:04 | -31.94053 | -58.22802 | 38815 ft | 380 kts | 14° |
| 2026-04-15 17:04 | -31.91521 | -58.21878 | 38716 ft | 376 kts | 14° |
| 2026-04-15 17:04 | -31.89049 | -58.20986 | 38995 ft | 373 kts | 14° |
| 2026-04-15 17:05 | -31.86545 | -58.20097 | 38638 ft | 387 kts | 14° |
| 2026-04-15 17:05 | -31.83987 | -58.19204 | 39062 ft | 376 kts | 13° |
| 2026-04-15 17:05 | -31.81492 | -58.18317 | 39366 ft | 372 kts | 13° |
| 2026-04-15 17:06 | -31.76516 | -58.16521 | 39321 ft | 380 kts | 13° |
| 2026-04-15 17:06 | -31.71404 | -58.14693 | 39245 ft | 389 kts | 13° |
| 2026-04-15 17:07 | -31.66171 | -58.12854 | 39225 ft | 396 kts | 13° |
| 2026-04-15 17:07 | -31.60869 | -58.10951 | 39138 ft | 405 kts | 13° |
| 2026-04-15 17:08 | -31.55409 | -58.09004 | 39020 ft | 413 kts | 13° |
| 2026-04-15 17:08 | -31.49950 | -58.07065 | 38992 ft | 398 kts | 13° |
| 2026-04-15 17:08 | -31.47361 | -58.06142 | 38819 ft | 391 kts | 13° |
| 2026-04-15 17:09 | -31.44714 | -58.05207 | 38904 ft | 395 kts | 13° |
| 2026-04-15 17:09 | -31.39413 | -58.03342 | 38800 ft | 408 kts | 13° |
| 2026-04-15 17:10 | -31.33944 | -58.01406 | 38799 ft | 414 kts | 13° |
| 2026-04-15 17:10 | -31.28474 | -57.99469 | 38826 ft | 415 kts | 13° |
| 2026-04-15 17:11 | -31.22937 | -57.97515 | 38827 ft | 415 kts | 13° |
| 2026-04-15 17:11 | -31.17404 | -57.95567 | 38821 ft | 415 kts | 13° |
| 2026-04-15 17:12 | -31.09083 | -57.92638 | 38805 ft | 416 kts | 12° |
| 2026-04-15 17:12 | -31.03575 | -57.90704 | 38780 ft | 416 kts | 11° |
| 2026-04-15 17:13 | -30.98025 | -57.88759 | 38778 ft | 416 kts | 11° |
| 2026-04-15 17:13 | -30.92475 | -57.86813 | 38775 ft | 416 kts | 11° |
| 2026-04-15 17:14 | -30.86957 | -57.84881 | 38775 ft | 416 kts | 11° |
| 2026-04-15 17:14 | -30.81394 | -57.82937 | 38771 ft | 417 kts | 11° |
| 2026-04-15 17:15 | -30.75821 | -57.80991 | 38773 ft | 418 kts | 11° |
| 2026-04-15 17:15 | -30.70293 | -57.79063 | 38777 ft | 416 kts | 11° |
| 2026-04-15 17:16 | -30.64723 | -57.77119 | 38771 ft | 417 kts | 11° |
| 2026-04-15 17:16 | -30.59166 | -57.75169 | 38785 ft | 417 kts | 11° |
| 2026-04-15 17:17 | -30.53603 | -57.73221 | 38779 ft | 417 kts | 11° |
| 2026-04-15 17:17 | -30.48074 | -57.71292 | 38778 ft | 417 kts | 11° |
| 2026-04-15 17:18 | -30.42512 | -57.69351 | 38781 ft | 417 kts | 11° |
| 2026-04-15 17:18 | -30.36945 | -57.67410 | 38781 ft | 417 kts | 11° |
| 2026-04-15 17:19 | -30.31402 | -57.65481 | 38787 ft | 416 kts | 11° |
| 2026-04-15 17:19 | -30.25959 | -57.63140 | 38789 ft | 427 kts | 26° |
| 2026-04-15 17:20 | -30.21005 | -57.59329 | 38777 ft | 430 kts | 26° |
| 2026-04-15 17:20 | -30.16060 | -57.55422 | 38787 ft | 431 kts | 27° |
| 2026-04-15 17:21 | -30.11128 | -57.51476 | 38790 ft | 430 kts | 27° |
| 2026-04-15 17:21 | -30.06210 | -57.47577 | 38786 ft | 430 kts | 27° |
| 2026-04-15 17:22 | -30.01267 | -57.43668 | 38798 ft | 431 kts | 27° |
| 2026-04-15 17:22 | -29.96347 | -57.39775 | 38793 ft | 430 kts | 27° |
| 2026-04-15 17:23 | -29.91395 | -57.35862 | 38806 ft | 431 kts | 27° |
| 2026-04-15 17:23 | -29.86437 | -57.31950 | 38809 ft | 432 kts | 27° |
| 2026-04-15 17:24 | -29.81466 | -57.28032 | 38805 ft | 432 kts | 27° |
| 2026-04-15 17:24 | -29.76504 | -57.24125 | 38810 ft | 432 kts | 27° |
| 2026-04-15 17:25 | -29.71575 | -57.20248 | 38807 ft | 430 kts | 27° |
| 2026-04-15 17:25 | -29.66626 | -57.16364 | 38833 ft | 431 kts | 27° |
| 2026-04-15 17:26 | -29.61669 | -57.12476 | 38825 ft | 430 kts | 27° |
| 2026-04-15 17:26 | -29.56748 | -57.08621 | 38844 ft | 431 kts | 27° |
| 2026-04-15 17:27 | -29.51773 | -57.04728 | 38825 ft | 431 kts | 27° |
| 2026-04-15 17:27 | -29.46840 | -57.00872 | 38812 ft | 431 kts | 27° |
| 2026-04-15 17:28 | -29.41872 | -56.96994 | 38815 ft | 431 kts | 27° |
| 2026-04-15 17:28 | -29.36904 | -56.93122 | 38825 ft | 431 kts | 27° |
| 2026-04-15 17:29 | -29.31939 | -56.89255 | 38829 ft | 431 kts | 27° |
| 2026-04-15 17:29 | -29.26999 | -56.85413 | 38821 ft | 431 kts | 27° |
| 2026-04-15 17:30 | -29.22026 | -56.81554 | 38835 ft | 432 kts | 27° |
| 2026-04-15 17:30 | -29.17038 | -56.77682 | 38835 ft | 434 kts | 27° |
| 2026-04-15 17:31 | -29.12882 | -56.74458 | 38836 ft | 432 kts | 27° |
| 2026-04-15 17:31 | -29.07078 | -56.69965 | 38837 ft | 433 kts | 27° |
| 2026-04-15 17:32 | -29.02920 | -56.66752 | 38834 ft | 433 kts | 27° |
| 2026-04-15 17:32 | -28.97925 | -56.62893 | 38836 ft | 433 kts | 27° |
| 2026-04-15 17:33 | -28.92931 | -56.59040 | 38844 ft | 433 kts | 27° |
| 2026-04-15 17:33 | -28.87963 | -56.55216 | 38855 ft | 433 kts | 27° |
| 2026-04-15 17:34 | -28.82950 | -56.51356 | 38876 ft | 436 kts | 28° |
| 2026-04-15 17:34 | -28.77908 | -56.47462 | 38876 ft | 437 kts | 28° |
| 2026-04-15 17:35 | -28.72902 | -56.43598 | 38843 ft | 436 kts | 28° |
| 2026-04-15 17:35 | -28.67832 | -56.39702 | 38861 ft | 437 kts | 28° |
| 2026-04-15 17:36 | -28.62812 | -56.35842 | 38861 ft | 437 kts | 28° |
| 2026-04-15 17:36 | -28.57765 | -56.31968 | 38861 ft | 437 kts | 28° |
| 2026-04-15 17:37 | -28.52724 | -56.28105 | 38872 ft | 438 kts | 28° |
| 2026-04-15 17:37 | -28.47663 | -56.24228 | 38866 ft | 438 kts | 28° |
| 2026-04-15 17:38 | -28.42635 | -56.20379 | 38864 ft | 438 kts | 28° |
| 2026-04-15 17:38 | -28.37577 | -56.16516 | 38865 ft | 438 kts | 28° |
| 2026-04-15 17:39 | -28.32524 | -56.12660 | 38872 ft | 438 kts | 28° |
| 2026-04-15 17:39 | -28.27455 | -56.08798 | 38904 ft | 437 kts | 28° |
| 2026-04-15 17:40 | -28.22418 | -56.04961 | 38868 ft | 437 kts | 28° |
| 2026-04-15 17:40 | -28.17343 | -56.01101 | 38877 ft | 438 kts | 28° |
| 2026-04-15 17:41 | -28.12298 | -55.97267 | 38882 ft | 437 kts | 28° |
| 2026-04-15 17:41 | -28.07218 | -55.93414 | 38881 ft | 437 kts | 28° |
| 2026-04-15 17:42 | -28.02153 | -55.89576 | 38888 ft | 441 kts | 28° |
| 2026-04-15 17:42 | -27.97015 | -55.85696 | 38872 ft | 453 kts | 28° |
| 2026-04-15 17:43 | -27.91867 | -55.81784 | 38853 ft | 434 kts | 28° |
| 2026-04-15 17:43 | -27.86860 | -55.78006 | 38903 ft | 437 kts | 28° |
| 2026-04-15 17:44 | -27.81756 | -55.74172 | 38859 ft | 442 kts | 28° |
| 2026-04-15 17:44 | -27.76646 | -55.70309 | 38896 ft | 441 kts | 28° |
| 2026-04-15 17:45 | -27.71565 | -55.66484 | 38899 ft | 441 kts | 28° |
| 2026-04-15 17:45 | -27.66446 | -55.62639 | 38899 ft | 441 kts | 28° |
| 2026-04-15 17:46 | -27.61551 | -55.58435 | 38908 ft | 452 kts | 45° |
| 2026-04-15 17:46 | -27.59789 | -55.55430 | 38953 ft | 462 kts | 56° |
| 2026-04-15 17:46 | -27.58269 | -55.52228 | 38872 ft | 465 kts | 58° |
| 2026-04-15 17:47 | -27.55441 | -55.45733 | 38895 ft | 463 kts | 59° |
| 2026-04-15 17:47 | -27.52578 | -55.39216 | 38906 ft | 464 kts | 58° |
| 2026-04-15 17:48 | -27.49648 | -55.32750 | 38912 ft | 463 kts | 58° |
| 2026-04-15 17:48 | -27.46744 | -55.26304 | 38910 ft | 464 kts | 59° |
| 2026-04-15 17:49 | -27.43860 | -55.19865 | 38891 ft | 448 kts | 59° |
| 2026-04-15 17:49 | -27.42481 | -55.16787 | 38846 ft | 430 kts | 59° |
| 2026-04-15 17:49 | -27.41164 | -55.13859 | 38904 ft | 409 kts | 58° |
| 2026-04-15 17:50 | -27.39910 | -55.11074 | 38878 ft | 394 kts | 58° |
| 2026-04-15 17:50 | -27.38683 | -55.08372 | 38995 ft | 389 kts | 58° |
| 2026-04-15 17:50 | -27.37418 | -55.05603 | 38315 ft | 409 kts | 58° |
| 2026-04-15 17:50 | -27.36064 | -55.02658 | 36573 ft | 436 kts | 58° |
| 2026-04-15 17:51 | -27.34553 | -54.99602 | 34818 ft | 455 kts | 49° |
| 2026-04-15 17:51 | -27.32235 | -54.97283 | 34325 ft | 435 kts | 29° |
| 2026-04-15 17:51 | -27.29728 | -54.95496 | 33694 ft | 430 kts | 28° |
| 2026-04-15 17:51 | -27.27256 | -54.93669 | 33237 ft | 420 kts | 30° |
| 2026-04-15 17:52 | -27.24852 | -54.91822 | 32665 ft | 414 kts | 30° |
| 2026-04-15 17:52 | -27.22492 | -54.90020 | 32138 ft | 407 kts | 30° |
| 2026-04-15 17:52 | -27.20135 | -54.88267 | 31614 ft | 403 kts | 28° |
| 2026-04-15 17:52 | -27.17768 | -54.86545 | 31045 ft | 411 kts | 28° |
| 2026-04-15 17:53 | -27.15320 | -54.84780 | 30544 ft | 420 kts | 28° |
| 2026-04-15 17:53 | -27.12845 | -54.82980 | 29895 ft | 427 kts | 28° |
| 2026-04-15 17:53 | -27.10391 | -54.81173 | 29415 ft | 424 kts | 29° |
| 2026-04-15 17:53 | -27.07915 | -54.79344 | 28781 ft | 427 kts | 28° |
| 2026-04-15 17:54 | -27.05428 | -54.77512 | 28254 ft | 426 kts | 28° |
| 2026-04-15 17:54 | -27.02976 | -54.75714 | 27698 ft | 422 kts | 28° |
| 2026-04-15 17:54 | -27.00523 | -54.73918 | 27109 ft | 419 kts | 28° |
| 2026-04-15 17:54 | -26.98100 | -54.72148 | 26597 ft | 413 kts | 28° |
| 2026-04-15 17:55 | -26.95695 | -54.70390 | 26016 ft | 411 kts | 28° |
| 2026-04-15 17:55 | -26.93317 | -54.68648 | 25464 ft | 407 kts | 28° |
| 2026-04-15 17:55 | -26.90951 | -54.66919 | 24971 ft | 403 kts | 28° |
| 2026-04-15 17:55 | -26.88591 | -54.65196 | 24377 ft | 402 kts | 28° |
| 2026-04-15 17:56 | -26.86268 | -54.63500 | 23903 ft | 397 kts | 28° |
| 2026-04-15 17:56 | -26.83952 | -54.61812 | 23316 ft | 395 kts | 28° |
| 2026-04-15 17:56 | -26.81695 | -54.60163 | 22856 ft | 387 kts | 28° |
| 2026-04-15 17:56 | -26.79451 | -54.58526 | 22329 ft | 382 kts | 28° |
| 2026-04-15 17:57 | -26.77235 | -54.56907 | 21782 ft | 379 kts | 28° |
| 2026-04-15 17:57 | -26.75045 | -54.55308 | 21351 ft | 372 kts | 28° |
| 2026-04-15 17:57 | -26.72877 | -54.53734 | 20801 ft | 369 kts | 28° |
| 2026-04-15 17:57 | -26.70715 | -54.52221 | 20339 ft | 360 kts | 22° |
| 2026-04-15 17:58 | -26.68441 | -54.51208 | 19894 ft | 350 kts | 15° |
| 2026-04-15 17:58 | -26.66137 | -54.50335 | 19389 ft | 346 kts | 14° |
| 2026-04-15 17:58 | -26.63865 | -54.49530 | 18939 ft | 342 kts | 14° |
| 2026-04-15 17:58 | -26.61599 | -54.48732 | 18508 ft | 339 kts | 14° |
| 2026-04-15 17:59 | -26.59388 | -54.47930 | 18018 ft | 337 kts | 15° |
| 2026-04-15 17:59 | -26.57192 | -54.47105 | 17620 ft | 331 kts | 15° |
| 2026-04-15 17:59 | -26.54995 | -54.46270 | 17151 ft | 331 kts | 15° |
| 2026-04-15 17:59 | -26.52831 | -54.45452 | 16700 ft | 323 kts | 15° |
| 2026-04-15 18:00 | -26.50722 | -54.44665 | 16318 ft | 315 kts | 14° |
| 2026-04-15 18:00 | -26.48659 | -54.43902 | 15864 ft | 310 kts | 14° |
| 2026-04-15 18:00 | -26.46646 | -54.43158 | 15505 ft | 304 kts | 14° |
| 2026-04-15 18:00 | -26.44651 | -54.42416 | 15063 ft | 301 kts | 14° |
| 2026-04-15 18:01 | -26.42668 | -54.41678 | 14700 ft | 297 kts | 14° |
| 2026-04-15 18:01 | -26.40699 | -54.40945 | 14270 ft | 299 kts | 14° |
| 2026-04-15 18:01 | -26.38728 | -54.40200 | 13890 ft | 299 kts | 14° |
| 2026-04-15 18:01 | -26.36749 | -54.39458 | 13469 ft | 298 kts | 14° |
| 2026-04-15 18:02 | -26.34796 | -54.38730 | 13094 ft | 296 kts | 14° |
| 2026-04-15 18:02 | -26.32847 | -54.38011 | 12707 ft | 293 kts | 14° |
| 2026-04-15 18:02 | -26.30909 | -54.37296 | 12292 ft | 292 kts | 14° |
| 2026-04-15 18:02 | -26.29015 | -54.36594 | 11944 ft | 289 kts | 15° |
| 2026-04-15 18:03 | -26.27098 | -54.35884 | 11514 ft | 288 kts | 14° |
| 2026-04-15 18:03 | -26.25205 | -54.35185 | 11173 ft | 285 kts | 13° |
| 2026-04-15 18:03 | -26.23292 | -54.34711 | 10794 ft | 281 kts | 5° |
| 2026-04-15 18:03 | -26.21343 | -54.34569 | 10419 ft | 278 kts | 358° |
| 2026-04-15 18:04 | -26.19422 | -54.34613 | 10051 ft | 273 kts | 356° |
| 2026-04-15 18:04 | -26.17556 | -54.34641 | 9689 ft | 271 kts | 358° |
| 2026-04-15 18:04 | -26.15686 | -54.34562 | 9349 ft | 266 kts | 1° |
| 2026-04-15 18:04 | -26.13850 | -54.34398 | 8977 ft | 263 kts | 2° |
| 2026-04-15 18:05 | -26.12031 | -54.34213 | 8633 ft | 259 kts | 2° |
| 2026-04-15 18:05 | -26.10246 | -54.34056 | 8283 ft | 256 kts | 1° |
| 2026-04-15 18:05 | -26.08504 | -54.33936 | 7963 ft | 253 kts | 0° |
| 2026-04-15 18:05 | -26.06752 | -54.33829 | 7618 ft | 250 kts | 0° |
| 2026-04-15 18:06 | -26.05019 | -54.33722 | 7287 ft | 247 kts | 0° |
| 2026-04-15 18:06 | -26.03305 | -54.33610 | 6974 ft | 244 kts | 0° |
| 2026-04-15 18:06 | -26.01615 | -54.33491 | 6630 ft | 243 kts | 1° |
| 2026-04-15 18:06 | -25.99972 | -54.33370 | 6338 ft | 240 kts | 0° |
| 2026-04-15 18:07 | -25.98297 | -54.33246 | 5997 ft | 238 kts | 1° |
| 2026-04-15 18:07 | -25.96662 | -54.33134 | 5709 ft | 234 kts | 1° |
| 2026-04-15 18:07 | -25.95028 | -54.33024 | 5374 ft | 233 kts | 1° |
| 2026-04-15 18:07 | -25.93430 | -54.32912 | 5149 ft | 228 kts | 1° |
| 2026-04-15 18:08 | -25.91839 | -54.32802 | 4787 ft | 228 kts | 2° |
| 2026-04-15 18:08 | -25.90279 | -54.32694 | 4504 ft | 226 kts | 2° |
| 2026-04-15 18:08 | -25.88730 | -54.32586 | 4370 ft | 213 kts | 4° |
| 2026-04-15 18:08 | -25.87409 | -54.32214 | 5346 ft | 193 kts | 19° |
| 2026-04-15 18:09 | -25.86104 | -54.31450 | 5602 ft | 230 kts | 25° |
| 2026-04-15 18:09 | -25.84680 | -54.30487 | 4686 ft | 251 kts | 27° |
| 2026-04-15 18:09 | -25.83159 | -54.29514 | 3627 ft | 251 kts | 25° |
| 2026-04-15 18:09 | -25.81556 | -54.29129 | 3184 ft | 224 kts | 352° |
| 2026-04-15 18:10 | -25.80310 | -54.29987 | 2824 ft | 213 kts | 306° |
| 2026-04-15 18:10 | -25.80002 | -54.31523 | 2580 ft | 196 kts | 280° |
| 2026-04-15 18:10 | -25.79684 | -54.32920 | 2533 ft | 187 kts | 298° |
| 2026-04-15 18:10 | -25.79124 | -54.34223 | 2516 ft | 182 kts | 298° |
| 2026-04-15 18:11 | -25.78649 | -54.35466 | 2488 ft | 165 kts | 298° |
| 2026-04-15 18:11 | -25.78209 | -54.36541 | 2441 ft | 144 kts | 302° |
| 2026-04-15 18:11 | -25.77780 | -54.37556 | 2454 ft | 150 kts | 301° |
| 2026-04-15 18:11 | -25.77336 | -54.38644 | 2298 ft | 158 kts | 301° |
| 2026-04-15 18:12 | -25.76883 | -54.39745 | 2096 ft | 154 kts | 301° |
| 2026-04-15 18:12 | -25.76442 | -54.40807 | 1857 ft | 148 kts | 300° |
| 2026-04-15 18:12 | -25.76018 | -54.41848 | 1629 ft | 150 kts | 298° |
| 2026-04-15 18:12 | -25.75591 | -54.42889 | 1464 ft | 149 kts | 297° |
| 2026-04-15 18:13 | -25.75168 | -54.43917 | 1294 ft | 141 kts | 298° |
| 2026-04-15 18:13 | -25.74745 | -54.44893 | 1156 ft | 144 kts | 302° |
| 2026-04-15 18:13 | -25.74337 | -54.45894 | 952 ft | 136 kts | 300° |
| 2026-04-15 18:14 | -25.73754 | -54.47286 | 928 ft | 67 kts | 295° |
| 2026-04-15 18:14 | -25.73581 | -54.47697 | 929 ft | 53 kts | 296° |
| 2026-04-15 18:14 | -25.73441 | -54.47999 | 931 ft | 23 kts | 313° |
| 2026-04-15 18:14 | -25.73343 | -54.48085 | 928 ft | 9 kts | 325° |
| 2026-04-15 18:15 | -25.73278 | -54.48105 | 928 ft | 11 kts | 11° |
| 2026-04-15 18:15 | -25.73235 | -54.48041 | 929 ft | 3 kts | 88° |
| 2026-04-15 18:15 | -25.73234 | -54.48025 | 928 ft | 3 kts | 88° |
| 2026-04-15 18:15 | -25.73233 | -54.47990 | 926 ft | 6 kts | 88° |
| 2026-04-15 18:16 | -25.73229 | -54.47939 | 926 ft | 8 kts | 84° |
| 2026-04-15 18:16 | -25.73223 | -54.47885 | 928 ft | 5 kts | 84° |
| 2026-04-15 18:16 | -25.73221 | -54.47860 | 926 ft | 3 kts | 84° |
| 2026-04-15 18:16 | -25.73220 | -54.47843 | 926 ft | 4 kts | 84° |
| 2026-04-15 18:17 | -25.73222 | -54.47810 | 926 ft | 5 kts | 106° |
| 2026-04-15 18:17 | -25.73239 | -54.47767 | 927 ft | 7 kts | 114° |
| 2026-04-15 18:17 | -25.73248 | -54.47747 | 927 ft | 3 kts | 114° |
| 2026-04-15 18:17 | -25.73247 | -54.47730 | 928 ft | 2 kts | 72° |
| 2026-04-15 18:18 | -25.73239 | -54.47725 | 928 ft | 2 kts | 29° |
| 2026-04-15 18:18 | -25.73222 | -54.47716 | 926 ft | 4 kts | 27° |
| 2026-04-15 18:18 | -25.73215 | -54.47711 | 926 ft | 0 kts | 27° |
| 2026-04-15 18:18 | -25.73212 | -54.47710 | 926 ft | 0 kts | 27° |
| 2026-04-15 18:19 | -25.73209 | -54.47708 | 926 ft | 0 kts | 26° |